Time;durP1;ratioP1;P1;durP2;ratioP2;P2;SDS_P1;SDS_P2;PMS_P1;PMS_P2;Temp;Humidity;BMP_temperature;BMP_pressure;BME280_temperature;BME280_humidity;BME280_pressure;Samples;Min_cycle;Max_cycle;Signal;HPM_P1;HPM_P2
2022/09/03 00:01:37;;;;;;;;;;;;;;;27.72;48.43;100794.28;104870;1305;76554;-82
2022/09/03 00:04:05;;;;;;;;;;;;;;;27.72;48.38;100793.01;104898;1303;62182;-81
2022/09/03 00:06:37;;;;;;;;;;;;;;;27.71;48.54;100793.27;104901;1303;61976;-82
2022/09/03 00:09:03;;;;;;;;;;;;;;;27.71;48.29;100785.88;104909;1303;73861;-82
2022/09/03 00:11:31;;;;;;;;;;;;;;;27.70;48.38;100782.48;104898;1302;62092;-80
2022/09/03 00:14:06;;;;;;;;;;;;;;;27.70;48.47;100784.29;104978;1303;62670;-82
2022/09/03 00:17:02;;;;;;;;;;;;;;;27.70;48.61;100781.23;104886;1305;62225;-82
2022/09/03 00:19:31;;;;;;;;;;;;;;;27.70;48.44;100778.01;104853;1303;72818;-82
2022/09/03 00:21:58;;;;;;;;;;;;;;;27.70;48.49;100778.39;104908;1304;76478;-82
2022/09/03 00:24:24;;;;;;;;;;;;;;;27.70;48.49;100776.75;104901;1303;62107;-82
2022/09/03 00:26:53;;;;;;;;;;;;;;;27.69;48.49;100774.80;104925;1303;62162;-83
2022/09/03 00:29:48;;;;;;;;;;;;;;;27.69;48.35;100777.21;104907;1305;73782;-82
2022/09/03 00:32:18;;;;;;;;;;;;;;;27.69;48.50;100780.40;104847;1303;75381;-83
2022/09/03 00:34:48;;;;;;;;;;;;;;;27.69;48.50;100780.97;104911;1303;62111;-82
2022/09/03 00:37:13;;;;;;;;;;;;;;;27.69;48.62;100781.89;104908;1303;61970;-82
2022/09/03 00:39:40;;;;;;;;;;;;;;;27.69;48.51;100781.70;104902;1303;62149;-82
2022/09/03 00:42:24;;;;;;;;;;;;;;;27.69;48.38;100784.64;104882;1303;62068;-82
2022/09/03 00:45:05;;;;;;;;;;;;;;;27.69;48.58;100790.80;104864;1303;62077;-81
2022/09/03 00:47:49;;;;;;;;;;;;;;;27.69;48.49;100789.54;104939;1303;60737;-83
2022/09/03 00:50:34;;;;;;;;;;;;;;;27.68;48.60;100783.43;104879;1302;71964;-82
2022/09/03 00:53:03;;;;;;;;;;;;;;;27.68;48.49;100782.21;104891;1304;75486;-81
2022/09/03 00:55:29;;;;;;;;;;;;;;;27.67;48.54;100781.90;104963;1305;61941;-81
2022/09/03 00:57:58;;;;;;;;;;;;;;;27.67;48.57;100778.81;104876;1304;61983;-82
2022/09/03 01:00:23;;;;;;;;;;;;;;;27.67;48.82;100780.30;104912;1305;73613;-79
2022/09/03 01:02:51;;;;;;;;;;;;;;;27.67;48.64;100784.48;104919;1305;62081;-81
2022/09/03 01:05:26;;;;;;;;;;;;;;;27.67;48.73;100782.35;104914;1305;62068;-82
2022/09/03 01:08:10;;;;;;;;;;;;;;;27.67;48.90;100788.31;104931;1305;61935;-81
2022/09/03 01:10:54;;;;;;;;;;;;;;;27.66;48.57;100790.17;104927;1304;72666;-80
2022/09/03 01:13:43;;;;;;;;;;;;;;;27.66;48.75;100796.70;104955;1304;75341;-82
2022/09/03 01:16:35;;;;;;;;;;;;;;;27.66;48.61;100799.76;104854;1305;62070;-81
2022/09/03 01:19:03;;;;;;;;;;;;;;;27.66;48.55;100792.71;104899;1303;61939;-81
2022/09/03 01:21:47;;;;;;;;;;;;;;;27.66;48.76;100789.65;104884;1304;73186;-80
2022/09/03 01:24:28;;;;;;;;;;;;;;;27.66;48.50;100789.82;104909;1305;76551;-80
2022/09/03 01:27:14;;;;;;;;;;;;;;;27.66;48.77;100786.77;104948;1305;62101;-81
2022/09/03 01:29:42;;;;;;;;;;;;;;;27.65;48.73;100784.08;104927;1304;61943;-79
2022/09/03 01:32:35;;;;;;;;;;;;;;;27.66;48.85;100785.14;104902;1305;73865;-83
2022/09/03 01:35:03;;;;;;;;;;;;;;;27.65;48.87;100788.63;104883;1305;76011;-82
2022/09/03 01:38:01;;;;;;;;;;;;;;;27.65;48.75;100791.17;104905;1305;62120;-81
2022/09/03 01:40:34;;;;;;;;;;;;;;;27.65;48.85;100785.40;104887;1306;62235;-83
2022/09/03 01:43:09;;;;;;;;;;;;;;;27.65;48.74;100787.73;104894;1304;72958;-83
2022/09/03 01:45:40;;;;;;;;;;;;;;;27.65;48.85;100790.81;104887;1306;75647;-82
2022/09/03 01:48:12;;;;;;;;;;;;;;;27.65;48.68;100792.07;104858;1306;61930;-83
2022/09/03 01:50:40;;;;;;;;;;;;;;;27.65;48.79;100793.02;104879;1304;61999;-81
2022/09/03 01:53:18;;;;;;;;;;;;;;;27.64;48.83;100798.13;104844;1304;72798;-82
2022/09/03 01:55:43;;;;;;;;;;;;;;;27.64;48.67;100797.44;104731;1306;75706;-81
2022/09/03 01:58:34;;;;;;;;;;;;;;;27.64;48.91;100802.89;104889;1306;62071;-81
2022/09/03 02:01:02;;;;;;;;;;;;;;;27.64;48.84;100801.63;104631;1305;62085;-81
2022/09/03 02:03:35;;;;;;;;;;;;;;;27.63;48.79;100799.83;104842;1306;72646;-82
2022/09/03 02:06:00;;;;;;;;;;;;;;;27.64;48.97;100801.09;104853;1305;76233;-79
2022/09/03 02:08:26;;;;;;;;;;;;;;;27.63;48.81;100799.89;104668;1306;62630;-81
2022/09/03 02:10:52;;;;;;;;;;;;;;;27.63;49.00;100800.80;104860;1306;62112;-82
2022/09/03 02:13:25;;;;;;;;;;;;;;;27.63;49.13;100796.67;104871;1305;61968;-81
2022/09/03 02:15:51;;;;;;;;;;;;;;;27.62;48.92;100804.08;104859;1305;74845;-81
2022/09/03 02:18:25;;;;;;;;;;;;;;;27.62;48.74;100805.73;104872;1306;61938;-81
2022/09/03 02:20:54;;;;;;;;;;;;;;;27.62;48.65;100807.02;104895;1305;62071;-84
2022/09/03 02:23:19;;;;;;;;;;;;;;;27.62;49.04;100803.81;104854;1305;73965;-82
2022/09/03 02:25:47;;;;;;;;;;;;;;;27.62;48.91;100799.64;104853;1306;62062;-83
2022/09/03 02:28:13;;;;;;;;;;;;;;;27.61;48.98;100799.54;104933;1305;61984;-82
2022/09/03 02:30:39;;;;;;;;;;;;;;;27.60;49.09;100798.64;104825;1306;62136;-83
2022/09/03 02:33:05;;;;;;;;;;;;;;;27.60;49.15;100803.89;104900;1305;62023;-81
2022/09/03 02:35:30;;;;;;;;;;;;;;;27.60;49.04;100812.80;104865;1303;59514;-82
2022/09/03 02:37:56;;;;;;;;;;;;;;;27.60;48.88;100812.06;104884;1305;64022;-84
2022/09/03 02:40:21;;;;;;;;;;;;;;;27.60;49.08;100818.23;104917;1305;62182;-82
2022/09/03 02:42:46;;;;;;;;;;;;;;;27.60;48.93;100818.02;104882;1305;61654;-81
2022/09/03 02:45:16;;;;;;;;;;;;;;;27.59;48.94;100814.84;104856;1305;62199;-81
2022/09/03 02:47:42;;;;;;;;;;;;;;;27.59;48.91;100812.20;104856;1305;75614;-82
2022/09/03 02:50:09;;;;;;;;;;;;;;;27.59;48.88;100812.02;104854;1306;62123;-82
2022/09/03 02:52:34;;;;;;;;;;;;;;;27.58;49.02;100809.16;104887;1304;62289;-83
2022/09/03 02:55:00;;;;;;;;;;;;;;;27.58;48.93;100813.84;104863;1305;62053;-82
2022/09/03 02:57:26;;;;;;;;;;;;;;;27.58;48.90;100816.41;104855;1305;62191;-82
2022/09/03 02:59:52;;;;;;;;;;;;;;;27.58;48.88;100815.91;104898;1306;62191;-82
2022/09/03 03:02:17;;;;;;;;;;;;;;;27.58;49.04;100815.73;104903;1305;62065;-82
2022/09/03 03:04:43;;;;;;;;;;;;;;;27.58;49.01;100821.33;104861;1305;62735;-82
2022/09/03 03:07:08;;;;;;;;;;;;;;;27.57;49.00;100820.48;103583;1305;1764432;-82
2022/09/03 03:09:34;;;;;;;;;;;;;;;27.57;48.95;100825.42;104861;1305;62123;-80
2022/09/03 03:12:00;;;;;;;;;;;;;;;27.57;49.04;100827.39;104877;1306;62236;-81
2022/09/03 03:14:25;;;;;;;;;;;;;;;27.56;49.16;100826.36;104901;1303;63189;-82
2022/09/03 03:16:50;;;;;;;;;;;;;;;27.57;49.18;100820.19;104901;1305;62091;-82
2022/09/03 03:19:16;;;;;;;;;;;;;;;27.56;48.85;100821.65;104873;1304;62655;-81
2022/09/03 03:21:42;;;;;;;;;;;;;;;27.57;49.00;100816.95;104890;1304;62074;-81
2022/09/03 03:24:07;;;;;;;;;;;;;;;27.56;48.89;100819.73;104865;1305;62080;-82
2022/09/03 03:26:33;;;;;;;;;;;;;;;27.55;49.18;100822.27;104885;1306;61965;-82
2022/09/03 03:28:59;;;;;;;;;;;;;;;27.55;49.22;100822.98;104950;1304;62107;-82
2022/09/03 03:31:26;;;;;;;;;;;;;;;27.55;49.10;100821.42;104887;1305;72822;-81
2022/09/03 03:33:55;;;;;;;;;;;;;;;27.55;49.17;100819.43;104847;1303;61944;-83
2022/09/03 03:36:20;;;;;;;;;;;;;;;27.55;49.22;100815.48;104847;1304;61983;-84
2022/09/03 03:38:46;;;;;;;;;;;;;;;27.54;49.17;100819.87;104892;1305;62095;-83
2022/09/03 03:41:13;;;;;;;;;;;;;;;27.54;49.20;100816.47;104838;1304;62173;-81
2022/09/03 03:43:38;;;;;;;;;;;;;;;27.54;49.41;100817.75;104874;1304;61963;-81
2022/09/03 03:46:04;;;;;;;;;;;;;;;27.54;49.10;100815.23;104881;1305;62089;-79
2022/09/03 03:48:31;;;;;;;;;;;;;;;27.54;49.01;100817.25;104873;1303;62096;-81
2022/09/03 03:50:59;;;;;;;;;;;;;;;27.53;49.10;100822.13;104866;1303;62186;-83
2022/09/03 03:53:25;;;;;;;;;;;;;;;27.53;49.12;100824.70;104879;1306;62087;-79
2022/09/03 03:55:58;;;;;;;;;;;;;;;27.53;49.31;100831.17;104898;1306;62094;-81
2022/09/03 03:58:23;;;;;;;;;;;;;;;27.53;49.18;100829.72;104893;1304;61961;-83
2022/09/03 04:00:50;;;;;;;;;;;;;;;27.52;49.34;100831.27;104873;1303;62167;-83
2022/09/03 04:03:15;;;;;;;;;;;;;;;27.53;49.17;100830.66;104938;1306;61998;-83
2022/09/03 04:05:41;;;;;;;;;;;;;;;27.53;49.40;100829.21;104930;1303;62210;-81
2022/09/03 04:08:06;;;;;;;;;;;;;;;27.53;49.27;100836.30;104862;1303;62164;-81
2022/09/03 04:10:32;;;;;;;;;;;;;;;27.53;49.38;100840.25;104905;1305;62188;-82
2022/09/03 04:12:57;;;;;;;;;;;;;;;27.53;49.19;100842.96;104841;1306;72933;-82
2022/09/03 04:15:23;;;;;;;;;;;;;;;27.53;49.22;100837.00;104883;1303;62130;-82
2022/09/03 04:17:48;;;;;;;;;;;;;;;27.53;49.22;100838.99;104891;1303;62173;-82
2022/09/03 04:20:14;;;;;;;;;;;;;;;27.52;49.19;100838.31;104874;1303;62128;-82
2022/09/03 04:22:39;;;;;;;;;;;;;;;27.53;49.44;100839.20;104905;1306;62191;-82
2022/09/03 04:25:05;;;;;;;;;;;;;;;27.52;49.26;100841.80;104840;1304;74452;-82
2022/09/03 04:27:30;;;;;;;;;;;;;;;27.52;49.28;100842.16;104887;1304;62780;-82
2022/09/03 04:29:56;;;;;;;;;;;;;;;27.52;49.10;100840.52;104900;1303;62088;-82
2022/09/03 04:35:06;;;;;;;;;;;;;;;27.51;49.37;100835.92;104877;1303;72662;-81
2022/09/03 04:37:32;;;;;;;;;;;;;;;27.51;49.31;100842.97;104870;1303;62114;-82
2022/09/03 04:39:57;;;;;;;;;;;;;;;27.51;49.38;100841.86;104885;1303;62188;-81
2022/09/03 04:42:23;;;;;;;;;;;;;;;27.51;49.27;100846.60;104896;1303;60029;-83
2022/09/03 04:44:49;;;;;;;;;;;;;;;27.51;49.49;100847.00;104850;1303;62082;-85
2022/09/03 04:47:15;;;;;;;;;;;;;;;27.51;49.21;100848.96;104905;1303;62109;-82
2022/09/03 04:49:40;;;;;;;;;;;;;;;27.51;49.37;100854.55;104846;1303;75856;-82
2022/09/03 04:52:06;;;;;;;;;;;;;;;27.50;49.34;100855.52;104870;1303;62083;-81
2022/09/03 04:54:32;;;;;;;;;;;;;;;27.51;49.29;100861.64;104864;1303;62162;-81
2022/09/03 04:56:59;;;;;;;;;;;;;;;27.50;49.34;100865.86;104887;1306;62082;-80
2022/09/03 04:59:25;;;;;;;;;;;;;;;27.50;49.34;100874.52;104887;1303;62159;-82
2022/09/03 05:01:51;;;;;;;;;;;;;;;27.49;49.36;100874.06;104885;1303;62115;-81
2022/09/03 05:04:17;;;;;;;;;;;;;;;27.49;49.38;100869.58;104789;1303;62055;-82
2022/09/03 05:06:44;;;;;;;;;;;;;;;27.48;49.46;100873.81;104913;1303;62067;-80
2022/09/03 05:09:09;;;;;;;;;;;;;;;27.49;49.29;100870.84;104848;1303;62142;-81
2022/09/03 05:11:35;;;;;;;;;;;;;;;27.49;49.32;100871.90;104905;1304;62219;-81
2022/09/03 05:14:00;;;;;;;;;;;;;;;27.49;49.20;100875.40;104858;1302;62069;-81
2022/09/03 05:16:27;;;;;;;;;;;;;;;27.48;49.21;100878.14;104874;1303;63336;-82
2022/09/03 05:18:53;;;;;;;;;;;;;;;27.48;49.15;100882.83;104846;1305;62084;-84
2022/09/03 05:21:18;;;;;;;;;;;;;;;27.48;49.15;100884.15;104842;1304;62023;-83
2022/09/03 05:23:44;;;;;;;;;;;;;;;27.48;48.98;100890.65;104859;1306;62098;-83
2022/09/03 05:26:11;;;;;;;;;;;;;;;27.48;49.11;100888.31;104885;1306;62235;-83
2022/09/03 05:28:37;;;;;;;;;;;;;;;27.47;48.91;100881.11;104835;1305;62107;-82
2022/09/03 05:31:03;;;;;;;;;;;;;;;27.47;48.74;100882.23;104808;1304;62103;-81
2022/09/03 05:33:28;;;;;;;;;;;;;;;27.47;48.68;100879.55;104887;1306;60951;-81
2022/09/03 05:35:54;;;;;;;;;;;;;;;27.46;48.50;100876.33;104860;1304;61991;-82
2022/09/03 05:38:20;;;;;;;;;;;;;;;27.46;48.61;100878.20;104845;1306;62241;-80
2022/09/03 05:40:45;;;;;;;;;;;;;;;27.45;48.46;100877.71;104863;1304;63187;-82
2022/09/03 05:43:12;;;;;;;;;;;;;;;27.45;48.28;100882.64;104852;1304;62050;-81
2022/09/03 05:45:38;;;;;;;;;;;;;;;27.44;48.39;100883.08;104888;1306;62104;-82
2022/09/03 05:48:03;;;;;;;;;;;;;;;27.45;48.21;100885.89;104864;1306;62273;-81
2022/09/03 05:50:29;;;;;;;;;;;;;;;27.44;48.25;100882.70;104883;1306;60103;-82
2022/09/03 05:52:54;;;;;;;;;;;;;;;27.44;47.94;100885.92;104826;1304;70640;-82
2022/09/03 05:55:20;;;;;;;;;;;;;;;27.44;47.94;100890.30;104836;1305;62058;-82
2022/09/03 05:57:50;;;;;;;;;;;;;;;27.45;48.24;100891.48;104662;1303;62560;-82
2022/09/03 06:00:18;;;;;;;;;;;;;;;27.44;48.02;100893.89;104883;1302;61986;-82
2022/09/03 06:02:51;;;;;;;;;;;;;;;27.45;47.97;100895.46;104837;1302;73848;-82
2022/09/03 06:05:17;;;;;;;;;;;;;;;27.45;48.04;100901.78;104828;1302;75699;-82
2022/09/03 06:07:45;;;;;;;;;;;;;;;27.44;48.20;100903.62;104888;1303;61930;-82
2022/09/03 06:10:11;;;;;;;;;;;;;;;27.45;48.04;100908.27;104917;1302;61859;-84
2022/09/03 06:12:37;;;;;;;;;;;;;;;27.44;47.87;100910.86;104842;1305;62178;-80
2022/09/03 06:15:04;;;;;;;;;;;;;;;27.43;47.73;100910.27;104881;1303;62207;-82
2022/09/03 06:17:30;;;;;;;;;;;;;;;27.42;47.90;100914.89;104792;1302;62814;-83
2022/09/03 06:19:55;;;;;;;;;;;;;;;27.41;47.57;100920.95;104819;1303;62119;-80
2022/09/03 06:22:23;;;;;;;;;;;;;;;27.40;47.56;100927.92;104808;1302;62116;-82
2022/09/03 06:24:49;;;;;;;;;;;;;;;27.39;47.43;100931.41;104836;1303;62181;-81
2022/09/03 06:27:14;;;;;;;;;;;;;;;27.39;47.21;100937.38;104816;1303;62075;-81
2022/09/03 06:29:40;;;;;;;;;;;;;;;27.39;47.31;100940.27;104711;1306;60030;-81
2022/09/03 06:32:05;;;;;;;;;;;;;;;27.39;47.15;100943.16;104872;1302;62289;-82
2022/09/03 06:34:31;;;;;;;;;;;;;;;27.38;47.18;100939.28;104853;1302;60287;-82
2022/09/03 06:36:57;;;;;;;;;;;;;;;27.39;46.47;100942.67;104856;1302;62091;-81
2022/09/03 06:39:24;;;;;;;;;;;;;;;27.38;46.88;100943.05;104851;1303;62204;-78
2022/09/03 06:41:50;;;;;;;;;;;;;;;27.38;46.79;100942.34;104817;1303;61956;-80
2022/09/03 06:44:16;;;;;;;;;;;;;;;27.38;46.64;100944.16;104819;1302;62053;-81
2022/09/03 06:46:41;;;;;;;;;;;;;;;27.38;46.45;100951.36;104850;1303;62177;-82
2022/09/03 06:49:07;;;;;;;;;;;;;;;27.39;46.47;100947.91;104866;1303;62725;-79
2022/09/03 06:51:33;;;;;;;;;;;;;;;27.38;46.31;100946.48;104871;1302;62185;-80
2022/09/03 06:54:02;;;;;;;;;;;;;;;27.38;46.51;100943.05;104953;1303;62130;-81
2022/09/03 06:56:27;;;;;;;;;;;;;;;27.38;46.32;100939.43;104984;1302;72939;-79
2022/09/03 06:58:54;;;;;;;;;;;;;;;27.38;45.94;100937.09;104837;1302;62219;-81
2022/09/03 07:01:20;;;;;;;;;;;;;;;27.37;46.38;100946.77;104967;1302;62186;-82
2022/09/03 07:03:48;;;;;;;;;;;;;;;27.37;46.16;100948.93;104924;1302;62094;-82
2022/09/03 07:06:14;;;;;;;;;;;;;;;27.37;46.35;100959.27;104979;1302;61993;-81
2022/09/03 07:08:41;;;;;;;;;;;;;;;27.35;45.92;100961.05;104938;1302;75522;-81
2022/09/03 07:11:10;;;;;;;;;;;;;;;27.32;45.88;100962.95;104850;1302;62038;-82
2022/09/03 07:13:43;;;;;;;;;;;;;;;27.30;45.87;100961.88;104927;1302;62026;-82
2022/09/03 07:16:09;;;;;;;;;;;;;;;27.29;45.55;100963.24;104896;1302;73802;-82
2022/09/03 07:18:34;;;;;;;;;;;;;;;27.26;45.45;100964.60;104850;1302;62081;-82
2022/09/03 07:21:00;;;;;;;;;;;;;;;27.26;45.34;100970.09;104791;1303;62198;-82
2022/09/03 07:23:26;;;;;;;;;;;;;;;27.24;45.17;100971.27;104824;1303;62190;-81
2022/09/03 07:25:53;;;;;;;;;;;;;;;27.23;45.28;100975.13;104807;1303;62076;-81
2022/09/03 07:28:19;;;;;;;;;;;;;;;27.23;45.20;100975.19;104872;1303;62069;-81
2022/09/03 07:30:44;;;;;;;;;;;;;;;27.22;44.88;100977.64;104853;1305;62225;-82
2022/09/03 07:33:10;;;;;;;;;;;;;;;27.20;44.76;100980.19;104876;1302;62244;-82
2022/09/03 07:35:35;;;;;;;;;;;;;;;27.18;44.39;100979.61;104896;1302;61969;-82
2022/09/03 07:38:01;;;;;;;;;;;;;;;27.19;44.41;100981.02;104822;1303;62095;-82
2022/09/03 07:40:28;;;;;;;;;;;;;;;27.20;44.52;100981.23;104844;1303;62093;-82
2022/09/03 07:43:03;;;;;;;;;;;;;;;27.21;44.57;100981.70;104858;1302;62054;-80
2022/09/03 07:45:29;;;;;;;;;;;;;;;27.22;44.39;100983.01;104897;1304;62110;-82
2022/09/03 07:47:54;;;;;;;;;;;;;;;27.23;44.61;100989.62;104813;1303;62088;-82
2022/09/03 07:50:20;;;;;;;;;;;;;;;27.20;44.56;100990.96;104637;1303;62492;-82
2022/09/03 07:52:46;;;;;;;;;;;;;;;27.20;44.47;100993.14;104713;1305;60046;-82
2022/09/03 07:55:12;;;;;;;;;;;;;;;27.21;44.42;100995.48;104781;1302;63281;-81
2022/09/03 07:57:38;;;;;;;;;;;;;;;27.21;44.55;100994.90;104808;1304;61924;-81
2022/09/03 08:00:05;;;;;;;;;;;;;;;27.22;44.38;100995.36;104833;1305;62070;-81
2022/09/03 08:02:31;;;;;;;;;;;;;;;27.23;44.27;100998.55;104810;1306;75473;-82
2022/09/03 08:04:56;;;;;;;;;;;;;;;27.22;44.41;100995.73;104836;1306;62154;-82
2022/09/03 08:07:22;;;;;;;;;;;;;;;27.22;44.47;101002.89;104800;1305;62662;-80
2022/09/03 08:09:47;;;;;;;;;;;;;;;27.22;44.45;101000.78;104746;1306;62255;-82
2022/09/03 08:12:12;;;;;;;;;;;;;;;27.22;44.45;100999.70;104817;1303;62148;-80
2022/09/03 08:14:38;;;;;;;;;;;;;;;27.21;44.35;100995.75;104648;1302;74915;-81
2022/09/03 08:17:03;;;;;;;;;;;;;;;27.22;44.09;100999.50;104676;1301;62129;-86
2022/09/03 08:19:29;;;;;;;;;;;;;;;27.22;44.31;101000.72;104772;1303;62114;-83
2022/09/03 08:21:54;;;;;;;;;;;;;;;27.22;44.23;100998.73;104741;1305;62248;-82
2022/09/03 08:24:23;;;;;;;;;;;;;;;27.23;44.04;101002.51;104647;1305;62175;-80
2022/09/03 08:26:48;;;;;;;;;;;;;;;27.23;44.29;101003.73;104726;1304;76503;-82
2022/09/03 08:29:14;;;;;;;;;;;;;;;27.23;44.27;101006.98;104690;1306;62075;-82
2022/09/03 08:31:41;;;;;;;;;;;;;;;27.24;44.16;101006.57;104696;1306;62174;-83
2022/09/03 08:34:07;;;;;;;;;;;;;;;27.24;44.34;101003.66;104741;1303;62207;-80
2022/09/03 08:36:33;;;;;;;;;;;;;;;27.24;44.23;101002.17;104647;1303;62143;-81
2022/09/03 08:39:02;;;;;;;;;;;;;;;27.22;44.34;101006.73;104738;1303;64420;-81
2022/09/03 08:41:47;;;;;;;;;;;;;;;27.22;44.13;101006.05;105047;1303;61967;-81
2022/09/03 08:44:21;;;;;;;;;;;;;;;27.22;44.01;101007.08;104651;1305;74240;-81
2022/09/03 08:46:53;;;;;;;;;;;;;;;27.22;44.26;101007.05;104736;1303;76962;-82
2022/09/03 08:49:24;;;;;;;;;;;;;;;27.23;43.92;101011.14;104840;1302;62076;-80
2022/09/03 08:51:51;;;;;;;;;;;;;;;27.22;44.11;101013.24;104876;1302;61956;-83
2022/09/03 08:54:18;;;;;;;;;;;;;;;27.21;43.93;101016.59;104801;1302;73738;-81
2022/09/03 08:56:43;;;;;;;;;;;;;;;27.21;43.92;101020.92;104873;1303;75713;-78
2022/09/03 08:59:09;;;;;;;;;;;;;;;27.21;43.90;101022.73;104861;1303;62136;-80
2022/09/03 09:01:55;;;;;;;;;;;;;;;27.21;43.71;101024.30;104827;1305;62076;-79
2022/09/03 09:04:45;;;;;;;;;;;;;;;27.20;43.71;101023.86;104789;1303;72791;-82
2022/09/03 09:07:20;;;;;;;;;;;;;;;27.18;43.54;101032.17;104837;1305;75821;-81
2022/09/03 09:09:49;;;;;;;;;;;;;;;27.17;43.44;101032.16;104853;1304;62123;-81
2022/09/03 09:12:25;;;;;;;;;;;;;;;27.15;43.46;101031.59;104844;1303;59486;-81
2022/09/03 09:15:05;;;;;;;;;;;;;;;27.13;43.32;101029.77;104823;1305;73091;-81
2022/09/03 09:17:36;;;;;;;;;;;;;;;27.13;43.22;101031.30;104790;1306;75472;-81
2022/09/03 09:20:07;;;;;;;;;;;;;;;27.11;43.09;101028.15;104863;1306;62094;-81
2022/09/03 09:22:34;;;;;;;;;;;;;;;27.10;42.94;101025.54;104826;1303;62630;-80
2022/09/03 09:25:01;;;;;;;;;;;;;;;27.10;42.99;101026.95;104806;1303;72845;-83
2022/09/03 09:27:26;;;;;;;;;;;;;;;27.10;42.88;101023.88;104780;1302;62110;-82
2022/09/03 09:29:52;;;;;;;;;;;;;;;27.08;42.82;101024.02;104779;1302;62069;-82
2022/09/03 09:32:18;;;;;;;;;;;;;;;27.07;42.76;101021.99;104847;1303;62052;-81
2022/09/03 09:34:43;;;;;;;;;;;;;;;27.07;42.90;101022.25;104934;1302;62076;-81
2022/09/03 09:37:12;;;;;;;;;;;;;;;27.06;42.85;101023.20;104917;1302;62075;-83
2022/09/03 09:39:37;;;;;;;;;;;;;;;27.07;42.65;101021.16;104948;1302;62090;-82
2022/09/03 09:42:08;;;;;;;;;;;;;;;27.06;42.64;101026.14;104854;1303;63250;-81
2022/09/03 09:44:42;;;;;;;;;;;;;;;27.05;42.28;101027.98;104975;1303;71884;-82
2022/09/03 09:47:20;;;;;;;;;;;;;;;27.06;42.71;101031.93;104880;1302;76956;-81
2022/09/03 09:49:45;;;;;;;;;;;;;;;27.07;42.55;101039.02;104867;1304;62053;-81
2022/09/03 09:52:11;;;;;;;;;;;;;;;27.08;42.59;101040.37;104918;1302;62225;-80
2022/09/03 09:54:37;;;;;;;;;;;;;;;27.08;42.62;101041.48;104779;1303;62258;-82
2022/09/03 09:57:05;;;;;;;;;;;;;;;27.08;42.40;101044.55;104839;1303;62126;-82
2022/09/03 09:59:31;;;;;;;;;;;;;;;27.07;42.32;101042.80;104836;1302;62187;-83
2022/09/03 10:02:25;;;;;;;;;;;;;;;27.07;42.42;101047.70;104796;1303;62053;-82
2022/09/03 10:04:50;;;;;;;;;;;;;;;27.06;42.15;101049.60;104847;1305;73799;-80
2022/09/03 10:07:18;;;;;;;;;;;;;;;27.05;42.21;101049.33;104821;1302;62046;-83
2022/09/03 10:09:44;;;;;;;;;;;;;;;27.05;42.19;101052.23;104821;1305;61858;-81
2022/09/03 10:12:22;;;;;;;;;;;;;;;27.05;42.27;101053.52;104801;1303;62091;-83
2022/09/03 10:15:07;;;;;;;;;;;;;;;27.05;42.09;101056.42;104802;1303;73607;-81
2022/09/03 10:17:51;;;;;;;;;;;;;;;27.05;42.12;101052.77;104773;1303;75508;-81
2022/09/03 10:20:36;;;;;;;;;;;;;;;27.05;41.95;101054.57;104809;1303;61986;-80
2022/09/03 10:23:10;;;;;;;;;;;;;;;27.05;42.24;101063.75;104878;1303;61992;-81
2022/09/03 10:25:50;;;;;;;;;;;;;;;27.06;42.13;101066.05;104932;1302;71910;-79
2022/09/03 10:28:16;;;;;;;;;;;;;;;27.06;41.82;101066.73;104797;1303;76611;-82
2022/09/03 10:31:10;;;;;;;;;;;;;;;27.06;42.14;101074.50;104694;1303;60229;-81
2022/09/03 10:33:40;;;;;;;;;;;;;;;27.06;41.93;101081.21;104571;1305;61964;-81
2022/09/03 10:36:26;;;;;;;;;;;;;;;27.07;42.17;101078.27;104734;1305;72690;-81
2022/09/03 10:39:11;;;;;;;;;;;;;;;27.07;41.94;101079.86;104746;1305;76661;-82
2022/09/03 10:41:40;;;;;;;;;;;;;;;27.07;42.02;101088.48;104795;1305;62642;-81
2022/09/03 10:44:38;;;;;;;;;;;;;;;27.07;41.68;101090.48;104759;1303;61839;-81
2022/09/03 10:47:18;;;;;;;;;;;;;;;27.07;41.97;101100.56;104466;1308;73630;-81
2022/09/03 10:49:48;;;;;;;;;;;;;;;27.07;41.69;101100.08;104533;1308;74387;-81
2022/09/03 10:52:25;;;;;;;;;;;;;;;27.07;41.72;101103.11;104450;1309;62085;-82
2022/09/03 10:55:17;;;;;;;;;;;;;;;27.07;41.81;101103.90;104503;1308;62009;-82
2022/09/03 10:57:42;;;;;;;;;;;;;;;27.04;41.56;101107.17;104357;1309;72939;-82
2022/09/03 11:00:09;;;;;;;;;;;;;;;27.03;41.71;101104.94;104493;1309;62060;-82
2022/09/03 11:02:37;;;;;;;;;;;;;;;27.04;41.63;101107.77;104510;1309;62203;-83
2022/09/03 11:05:09;;;;;;;;;;;;;;;27.05;41.44;101109.15;104291;1308;62867;-80
2022/09/03 11:07:36;;;;;;;;;;;;;;;27.05;41.36;101112.15;104303;1308;73834;-81
2022/09/03 11:10:13;;;;;;;;;;;;;;;27.06;41.43;101114.12;104319;1308;76105;-84
2022/09/03 11:12:39;;;;;;;;;;;;;;;27.07;41.61;101112.76;104414;1308;62108;-82
2022/09/03 11:15:20;;;;;;;;;;;;;;;27.07;41.40;101109.65;104400;1308;61989;-82
2022/09/03 11:17:51;;;;;;;;;;;;;;;27.07;41.29;101107.45;104314;1308;72940;-85
2022/09/03 11:20:20;;;;;;;;;;;;;;;27.07;41.48;101105.81;104117;1309;75457;-80
2022/09/03 11:22:46;;;;;;;;;;;;;;;27.08;41.54;101105.92;104323;1305;62129;-81
2022/09/03 11:25:12;;;;;;;;;;;;;;;27.08;41.77;101106.64;104537;1305;62174;-82
2022/09/03 11:27:41;;;;;;;;;;;;;;;27.09;41.95;101107.30;104538;1305;62102;-81
2022/09/03 11:30:13;;;;;;;;;;;;;;;27.09;42.18;101106.55;104511;1305;76748;-82
2022/09/03 11:32:41;;;;;;;;;;;;;;;27.10;42.50;101108.80;104610;1305;62051;-80
2022/09/03 11:35:23;;;;;;;;;;;;;;;27.10;42.59;101111.91;104522;1305;61989;-81
2022/09/03 11:37:52;;;;;;;;;;;;;;;27.11;42.79;101110.03;104844;1305;74111;-81
2022/09/03 11:40:18;;;;;;;;;;;;;;;27.11;43.03;101111.09;104788;1305;75523;-83
2022/09/03 11:42:44;;;;;;;;;;;;;;;27.11;43.08;101110.36;104866;1304;63192;-82
2022/09/03 11:45:42;;;;;;;;;;;;;;;27.11;42.97;101111.13;104795;1305;62096;-82
2022/09/03 11:48:27;;;;;;;;;;;;;;;27.11;43.51;101107.86;104495;1308;73899;-79
2022/09/03 11:50:53;;;;;;;;;;;;;;;27.10;43.50;101108.41;104497;1308;76808;-79
2022/09/03 11:53:23;;;;;;;;;;;;;;;27.10;43.85;101110.41;104473;1309;62082;-79
2022/09/03 11:55:53;;;;;;;;;;;;;;;27.10;43.93;101118.17;104477;1308;61884;-82
2022/09/03 11:58:23;;;;;;;;;;;;;;;27.10;43.73;101119.08;104478;1308;62122;-81
2022/09/03 12:00:54;;;;;;;;;;;;;;;27.10;43.98;101119.65;104485;1309;75479;-82
2022/09/03 12:03:22;;;;;;;;;;;;;;;27.11;43.82;101123.42;104471;1308;61961;-83
2022/09/03 12:05:58;;;;;;;;;;;;;;;27.11;43.94;101125.02;104518;1308;61961;-82
2022/09/03 12:08:30;;;;;;;;;;;;;;;27.10;44.32;101123.96;104477;1308;72613;-82
2022/09/03 12:10:58;;;;;;;;;;;;;;;27.10;44.33;101127.77;104459;1309;76782;-81
2022/09/03 12:13:42;;;;;;;;;;;;;;;27.10;44.15;101127.24;104479;1308;63326;-81
2022/09/03 12:16:25;;;;;;;;;;;;;;;27.11;44.43;101127.21;104499;1308;62091;-80
2022/09/03 12:18:54;;;;;;;;;;;;;;;27.11;44.52;101121.05;104468;1309;73836;-81
2022/09/03 12:21:19;;;;;;;;;;;;;;;27.10;44.60;101120.54;104494;1308;76475;-80
2022/09/03 12:23:49;;;;;;;;;;;;;;;27.11;44.83;101123.21;104576;1305;62141;-83
2022/09/03 12:26:14;;;;;;;;;;;;;;;27.11;44.60;101126.45;104799;1305;62161;-79
2022/09/03 12:28:41;;;;;;;;;;;;;;;27.11;44.83;101123.90;104856;1305;62073;-83
2022/09/03 12:31:13;;;;;;;;;;;;;;;27.11;44.89;101123.92;104791;1304;61999;-81
2022/09/03 12:33:41;;;;;;;;;;;;;;;27.11;44.91;101126.09;104816;1305;62429;-82
2022/09/03 12:36:07;;;;;;;;;;;;;;;27.11;44.86;101125.01;104801;1303;62171;-81
2022/09/03 12:38:34;;;;;;;;;;;;;;;27.10;45.26;101126.84;104886;1305;62100;-82
2022/09/03 12:40:59;;;;;;;;;;;;;;;27.10;44.98;101121.09;104797;1305;62081;-81